createdAt,value
2018-03-16T00:01:31.380Z,93734
2018-03-16T00:03:59.575Z,93729
2018-03-16T00:06:28.436Z,93724
2018-03-16T00:08:56.583Z,93736
2018-03-16T00:11:24.684Z,93745
2018-03-16T00:13:52.918Z,93744
2018-03-16T00:16:21.010Z,93762
2018-03-16T00:18:50.179Z,93764
2018-03-16T00:21:20.200Z,93766
2018-03-16T00:23:50.389Z,93774
2018-03-16T00:26:20.588Z,93782
2018-03-16T00:28:50.314Z,93782
2018-03-16T00:31:19.527Z,93785
2018-03-16T00:33:47.756Z,93788
2018-03-16T00:36:16.778Z,93795
2018-03-16T00:38:44.875Z,93799
2018-03-16T00:41:12.976Z,93794
2018-03-16T00:43:42.109Z,93795
2018-03-16T00:46:10.220Z,93800
2018-03-16T00:48:38.385Z,93797
2018-03-16T00:51:06.629Z,93817
2018-03-16T00:53:35.484Z,93801
2018-03-16T00:56:03.588Z,93810
2018-03-16T00:58:31.784Z,93806
2018-03-16T01:01:00.654Z,93816
2018-03-16T01:03:28.755Z,93817
2018-03-16T01:05:57.723Z,93819
2018-03-16T01:08:25.825Z,93819
2018-03-16T01:10:54.692Z,93826
2018-03-16T01:13:22.780Z,93833
2018-03-16T01:15:50.884Z,93839
2018-03-16T01:18:19.859Z,93836
2018-03-16T01:20:48.052Z,93824
2018-03-16T01:23:16.911Z,93827
2018-03-16T01:25:45.016Z,93819
2018-03-16T01:28:14.395Z,93832
2018-03-16T01:30:42.608Z,93835
2018-03-16T01:33:11.464Z,93821
2018-03-16T01:35:39.569Z,93827
2018-03-16T01:38:07.656Z,93825
2018-03-16T01:40:36.544Z,93819
2018-03-16T01:43:05.407Z,93829
2018-03-16T01:45:33.500Z,93820
2018-03-16T01:48:02.438Z,93825
2018-03-16T01:50:30.532Z,93823
2018-03-16T01:53:11.355Z,93813
2018-03-16T01:55:40.223Z,93816
2018-03-16T01:58:08.308Z,93814
2018-03-16T02:00:36.408Z,93815
2018-03-16T02:03:05.261Z,93816
2018-03-16T02:05:33.380Z,93821
2018-03-16T02:08:02.232Z,93823
2018-03-16T02:10:30.353Z,93825
2018-03-16T02:12:59.202Z,93820
2018-03-16T02:15:27.316Z,93814
2018-03-16T02:17:56.176Z,93802
2018-03-16T02:20:24.271Z,93791
2018-03-16T02:22:52.399Z,93792
2018-03-16T02:25:20.516Z,93794
2018-03-16T02:27:48.624Z,93805
2018-03-16T02:30:17.501Z,93813
2018-03-16T02:32:45.586Z,93809
2018-03-16T02:35:13.775Z,93821
2018-03-16T02:37:41.778Z,93831
2018-03-16T02:40:10.874Z,93811
2018-03-16T02:42:38.976Z,93824
2018-03-16T02:45:07.088Z,93816
2018-03-16T02:47:35.203Z,93813
2018-03-16T02:50:03.288Z,93822
2018-03-16T02:52:31.431Z,93823
2018-03-16T02:55:00.297Z,93836
2018-03-16T02:57:28.385Z,93837
2018-03-16T02:59:56.488Z,93832
2018-03-16T03:02:25.344Z,93829
2018-03-16T03:04:53.552Z,93839
2018-03-16T03:07:22.407Z,93835
2018-03-16T03:09:52.515Z,93836
2018-03-16T03:12:21.652Z,93824
2018-03-16T03:14:50.671Z,93837
2018-03-16T03:17:20.680Z,93819
2018-03-16T03:19:48.868Z,93829
2018-03-16T03:22:17.714Z,93832
2018-03-16T03:24:45.796Z,93830
2018-03-16T03:27:13.920Z,93819
2018-03-16T03:29:42.768Z,93833
2018-03-16T03:32:10.916Z,93819
2018-03-16T03:34:39.018Z,93824
2018-03-16T03:37:07.136Z,93829
2018-03-16T03:39:35.220Z,93821
2018-03-16T03:42:04.111Z,93826
2018-03-16T03:44:32.976Z,93828
2018-03-16T03:47:01.180Z,93795
2018-03-16T03:49:29.356Z,93829
2018-03-16T03:51:57.539Z,93836
2018-03-16T03:54:26.411Z,93834
2018-03-16T03:56:54.487Z,93835
2018-03-16T03:59:22.580Z,93834
2018-03-16T04:01:52.209Z,93839
2018-03-16T04:04:21.113Z,93842
2018-03-16T04:06:49.212Z,93841
2018-03-16T04:09:17.322Z,93841
2018-03-16T04:11:45.533Z,93835
2018-03-16T04:14:14.417Z,93846
2018-03-16T04:16:44.032Z,93838
2018-03-16T04:19:12.887Z,93837
2018-03-16T04:21:40.995Z,93845
2018-03-16T04:24:09.094Z,93836
2018-03-16T04:26:37.964Z,93844
2018-03-16T04:29:06.645Z,93841
2018-03-16T04:31:34.739Z,93833
2018-03-16T04:34:02.828Z,93852
2018-03-16T04:36:31.700Z,93847
2018-03-16T04:38:59.787Z,93855
2018-03-16T04:41:27.885Z,93838
2018-03-16T04:43:56.739Z,93857
2018-03-16T04:46:24.940Z,93845
2018-03-16T04:48:53.327Z,93852
2018-03-16T04:51:22.194Z,93861
2018-03-16T04:53:51.422Z,93863
2018-03-16T04:56:19.606Z,93851
2018-03-16T04:58:48.461Z,93860
2018-03-16T05:01:16.562Z,93855
2018-03-16T05:03:44.655Z,93849
2018-03-16T05:06:13.539Z,93849
2018-03-16T05:08:41.715Z,93838
2018-03-16T05:11:09.908Z,93851
2018-03-16T05:13:38.764Z,93854
2018-03-16T05:16:07.684Z,93849
2018-03-16T05:18:35.838Z,93845
2018-03-16T05:21:03.940Z,93848
2018-03-16T05:23:32.131Z,93850
2018-03-16T05:26:00.987Z,93848
2018-03-16T05:28:29.088Z,93855
2018-03-16T05:30:57.204Z,93856
2018-03-16T05:33:25.351Z,93864
2018-03-16T05:35:54.216Z,93871
2018-03-16T05:38:22.293Z,93860
2018-03-16T05:40:50.376Z,93862
2018-03-16T05:43:18.621Z,93872
2018-03-16T05:45:46.724Z,93871
2018-03-16T05:48:14.820Z,93854
2018-03-16T05:50:43.689Z,93876
2018-03-16T05:53:11.775Z,93877
2018-03-16T05:55:39.872Z,93864
2018-03-16T05:58:07.978Z,93878
2018-03-16T06:00:36.140Z,93882
2018-03-16T06:03:05.007Z,93879
2018-03-16T06:05:33.104Z,93858
2018-03-16T06:08:01.985Z,93872
2018-03-16T06:10:30.181Z,93887
2018-03-16T06:12:59.064Z,93891
2018-03-16T06:15:27.149Z,93884
2018-03-16T06:17:56.240Z,93887
2018-03-16T06:20:24.323Z,93891
2018-03-16T06:22:53.331Z,93895
2018-03-16T06:25:22.428Z,93904
2018-03-16T06:27:52.413Z,93907
2018-03-16T06:30:20.936Z,93898
2018-03-16T06:32:49.787Z,93903
2018-03-16T06:35:17.919Z,93895
2018-03-16T06:37:46.073Z,93902
2018-03-16T06:40:14.970Z,93895
2018-03-16T06:42:43.162Z,93905
2018-03-16T06:45:12.485Z,93912
2018-03-16T06:47:40.582Z,93907
2018-03-16T06:50:08.673Z,93911
2018-03-16T06:52:36.788Z,93911
2018-03-16T06:55:05.641Z,93916
2018-03-16T06:57:33.752Z,93922
2018-03-16T07:00:01.843Z,93921
2018-03-16T07:02:30.716Z,93919
2018-03-16T07:04:58.792Z,93930
2018-03-16T07:07:26.900Z,93924
2018-03-16T07:09:55.748Z,93925
2018-03-16T07:12:23.843Z,93934
2018-03-16T07:14:52.333Z,93929
2018-03-16T07:17:20.428Z,93926
2018-03-16T07:19:49.280Z,93938
2018-03-16T07:22:17.372Z,93937
2018-03-16T07:24:45.456Z,93943
2018-03-16T07:27:13.544Z,93942
2018-03-16T07:29:42.489Z,93947
2018-03-16T07:32:10.558Z,93942
2018-03-16T07:34:38.683Z,93941
2018-03-16T07:37:06.869Z,93942
2018-03-16T07:39:35.732Z,93945
2018-03-16T07:42:03.832Z,93938
2018-03-16T07:44:31.951Z,93947
2018-03-16T07:47:00.041Z,93941
2018-03-16T07:49:28.132Z,93935
2018-03-16T07:51:56.220Z,93957
2018-03-16T07:54:24.320Z,93951
2018-03-16T07:56:52.407Z,93945
2018-03-16T07:59:21.256Z,93954
2018-03-16T08:01:49.356Z,93951
2018-03-16T08:04:17.439Z,93948
2018-03-16T08:06:45.541Z,93948
2018-03-16T08:09:14.395Z,93950
2018-03-16T08:11:44.012Z,93966
2018-03-16T08:14:12.096Z,93964
2018-03-16T08:16:40.289Z,93960
2018-03-16T08:19:09.148Z,93958
2018-03-16T08:21:37.228Z,93959
2018-03-16T08:24:05.324Z,93962
2018-03-16T08:26:33.420Z,93946
2018-03-16T08:29:02.309Z,93960
2018-03-16T08:31:31.158Z,93951
2018-03-16T08:33:59.259Z,93956
2018-03-16T08:36:27.456Z,93955
2018-03-16T08:38:56.568Z,93960
2018-03-16T08:41:24.700Z,93945
2018-03-16T08:43:53.908Z,93945
2018-03-16T08:46:22.019Z,93954
2018-03-16T08:48:50.903Z,93955
2018-03-16T08:51:19.756Z,93957
2018-03-16T08:53:47.880Z,93958
2018-03-16T08:56:16.767Z,93964
2018-03-16T08:58:45.629Z,93950
2018-03-16T09:01:13.730Z,93954
2018-03-16T09:03:41.915Z,93946
2018-03-16T09:06:10.007Z,93951
2018-03-16T09:08:38.892Z,93951
2018-03-16T09:11:07.760Z,93952
2018-03-16T09:13:35.955Z,93957
2018-03-16T09:16:04.052Z,93964
2018-03-16T09:18:33.666Z,93959
2018-03-16T09:21:02.546Z,93961
2018-03-16T09:23:30.644Z,93953
2018-03-16T09:25:59.548Z,93960
2018-03-16T09:28:27.703Z,93975
2018-03-16T09:30:56.577Z,93968
2018-03-16T09:33:24.684Z,93967
2018-03-16T09:35:54.680Z,93961
2018-03-16T09:38:22.787Z,93968
2018-03-16T09:40:52.764Z,93956
2018-03-16T09:43:20.859Z,93965
2018-03-16T09:45:49.043Z,93962
2018-03-16T09:48:17.948Z,93954
2018-03-16T09:50:46.824Z,93968
2018-03-16T09:53:30.166Z,93973
2018-03-16T09:55:58.746Z,93968
2018-03-16T09:58:27.844Z,93966
2018-03-16T10:00:56.715Z,93962
2018-03-16T10:03:25.302Z,93971
2018-03-16T10:05:53.388Z,93960
2018-03-16T10:08:21.502Z,93967
2018-03-16T10:10:49.656Z,93959
2018-03-16T10:13:18.529Z,93973
2018-03-16T10:15:46.624Z,93965
2018-03-16T10:18:14.723Z,93966
2018-03-16T10:20:42.844Z,93958
2018-03-16T10:23:10.952Z,93957
2018-03-16T10:25:39.897Z,93958
2018-03-16T10:28:08.723Z,93960
2018-03-16T10:30:36.829Z,93961
2018-03-16T10:33:05.695Z,93957
2018-03-16T10:35:33.801Z,93946
2018-03-16T10:38:02.708Z,93956
2018-03-16T10:40:31.596Z,93956
2018-03-16T10:43:00.449Z,93955
2018-03-16T10:45:28.882Z,93961
2018-03-16T10:47:57.044Z,93952
2018-03-16T10:50:26.379Z,93960
2018-03-16T10:52:55.996Z,93961
2018-03-16T10:55:25.368Z,93963
2018-03-16T10:57:55.359Z,93965
2018-03-16T11:00:29.184Z,93968
2018-03-16T11:03:03.768Z,93971
2018-03-16T11:05:31.968Z,93963
2018-03-16T11:08:05.112Z,93982
2018-03-16T11:10:33.356Z,93981
2018-03-16T11:13:02.218Z,93984
2018-03-16T11:15:30.323Z,93982
2018-03-16T11:17:58.426Z,93989
2018-03-16T11:20:27.441Z,93979
2018-03-16T11:22:55.598Z,93980
2018-03-16T11:25:23.825Z,93985
2018-03-16T11:27:52.706Z,93992
2018-03-16T11:30:20.916Z,94003
2018-03-16T11:32:48.999Z,94001
2018-03-16T11:35:17.095Z,93995
2018-03-16T11:37:45.187Z,93975
2018-03-16T11:40:14.100Z,93981
2018-03-16T11:42:42.211Z,93992
2018-03-16T11:45:10.424Z,93979
2018-03-16T11:47:38.530Z,93984
2018-03-16T11:50:06.641Z,93984
2018-03-16T11:52:34.756Z,93976
2018-03-16T11:55:02.852Z,93977
2018-03-16T11:57:31.723Z,93982
2018-03-16T11:59:59.916Z,93980
2018-03-16T12:02:28.805Z,93970
2018-03-16T12:04:56.903Z,93977
2018-03-16T12:07:26.192Z,93971
2018-03-16T12:09:56.179Z,93969
2018-03-16T12:12:24.268Z,93972
2018-03-16T12:14:53.290Z,93967
2018-03-16T12:17:22.172Z,93968
2018-03-16T12:19:50.265Z,93984
2018-03-16T12:22:19.120Z,93971
2018-03-16T12:24:47.226Z,93965
2018-03-16T12:27:16.080Z,93973
2018-03-16T12:29:44.186Z,93962
2018-03-16T12:32:12.279Z,93967
2018-03-16T12:34:41.163Z,93973
2018-03-16T12:37:09.255Z,93973
2018-03-16T12:39:38.148Z,93973
2018-03-16T12:42:07.024Z,93962
2018-03-16T12:44:35.136Z,93964
2018-03-16T12:47:03.283Z,93968
2018-03-16T12:49:31.465Z,93947
2018-03-16T12:52:00.334Z,93966
2018-03-16T12:54:28.446Z,93966
2018-03-16T12:56:56.711Z,93957
2018-03-16T12:59:24.812Z,93969
2018-03-16T13:01:53.666Z,93960
2018-03-16T13:04:21.765Z,93970
2018-03-16T13:06:50.632Z,93955
2018-03-16T13:09:18.739Z,93962
2018-03-16T13:11:47.628Z,93935
2018-03-16T13:14:15.751Z,93936
2018-03-16T13:16:43.863Z,93935
2018-03-16T13:19:12.097Z,93936
2018-03-16T13:21:40.207Z,93941
2018-03-16T13:24:08.327Z,93945
2018-03-16T13:26:37.200Z,93954
2018-03-16T13:29:05.288Z,93952
2018-03-16T13:31:33.409Z,93941
2018-03-16T13:34:01.499Z,93938
2018-03-16T13:36:29.592Z,93943
2018-03-16T13:38:57.721Z,93955
2018-03-16T13:41:27.720Z,93954
2018-03-16T13:43:57.709Z,93951
2018-03-16T13:46:25.942Z,93954
2018-03-16T13:48:54.101Z,93944
2018-03-16T13:51:22.992Z,93949
2018-03-16T13:53:52.292Z,93948
2018-03-16T13:56:20.392Z,93941
2018-03-16T13:58:48.563Z,93930
2018-03-16T14:01:17.424Z,93926
2018-03-16T14:03:45.630Z,93936
2018-03-16T14:06:14.498Z,93936
2018-03-16T14:08:42.582Z,93926
2018-03-16T14:11:10.686Z,93929
2018-03-16T14:13:39.549Z,93931
2018-03-16T14:16:09.226Z,93928
2018-03-16T14:18:38.070Z,93934
2018-03-16T14:21:06.187Z,93933
2018-03-16T14:23:34.328Z,93936
2018-03-16T14:26:03.227Z,93930
2018-03-16T14:28:32.114Z,93929
2018-03-16T14:31:00.292Z,93925
2018-03-16T14:33:29.864Z,93922
2018-03-16T14:35:57.980Z,93927
2018-03-16T14:38:26.076Z,93919
2018-03-16T14:40:54.963Z,93914
2018-03-16T14:43:23.820Z,93921
2018-03-16T14:45:52.444Z,93916
2018-03-16T14:48:21.315Z,93914
2018-03-16T14:50:49.416Z,93916
2018-03-16T14:53:18.272Z,93922
2018-03-16T14:55:46.380Z,93916
2018-03-16T14:58:14.552Z,93905
2018-03-16T15:00:43.426Z,93919
2018-03-16T15:03:11.524Z,93923
2018-03-16T15:05:39.708Z,93914
2018-03-16T15:08:07.891Z,93924
2018-03-16T15:10:36.756Z,93940
2018-03-16T15:13:04.856Z,93969
2018-03-16T15:15:32.951Z,93953
2018-03-16T15:18:01.805Z,93963
2018-03-16T15:20:29.900Z,93965
2018-03-16T15:22:58.387Z,93968
2018-03-16T15:25:26.475Z,93968
2018-03-16T15:27:55.330Z,93961
2018-03-16T15:30:23.395Z,93975
2018-03-16T15:32:52.398Z,93965
2018-03-16T15:35:20.490Z,93976
2018-03-16T15:37:48.542Z,93967
2018-03-16T15:40:16.610Z,93966
2018-03-16T15:42:44.671Z,93957
2018-03-16T15:45:12.742Z,93968
2018-03-16T15:47:40.773Z,93966
2018-03-16T15:50:08.840Z,93964
2018-03-16T15:52:36.886Z,93972
2018-03-16T15:55:04.943Z,93965
2018-03-16T15:57:33.001Z,93958
2018-03-16T16:00:01.916Z,93963
2018-03-16T16:02:30.003Z,93946
2018-03-16T16:04:58.813Z,93947
2018-03-16T16:07:27.186Z,93937
2018-03-16T16:09:55.230Z,93923
2018-03-16T16:12:23.306Z,93923
2018-03-16T16:14:52.318Z,93921
2018-03-16T16:17:20.388Z,93925
2018-03-16T16:19:49.238Z,93914
2018-03-16T16:22:17.310Z,93913
2018-03-16T16:24:45.494Z,93909
2018-03-16T16:27:13.586Z,93906
2018-03-16T16:29:41.738Z,93911
2018-03-16T16:32:09.834Z,93914
2018-03-16T16:34:37.990Z,93909
2018-03-16T16:37:06.167Z,93906
2018-03-16T16:39:34.230Z,93911
2018-03-16T16:42:02.350Z,93909
2018-03-16T16:44:31.197Z,93924
2018-03-16T16:46:59.266Z,93906
2018-03-16T16:49:27.384Z,93908
2018-03-16T16:51:55.447Z,93913
2018-03-16T16:54:23.518Z,93927
2018-03-16T16:56:52.422Z,93929
2018-03-16T16:59:20.478Z,93926
2018-03-16T17:01:48.546Z,93926
2018-03-16T17:04:16.642Z,93942
2018-03-16T17:06:44.718Z,93945
2018-03-16T17:09:12.813Z,93944
2018-03-16T17:11:40.890Z,93957
2018-03-16T17:14:08.956Z,93957
2018-03-16T17:16:37.023Z,93953
2018-03-16T17:19:05.086Z,93961
2018-03-16T17:21:33.148Z,93960
2018-03-16T17:24:01.572Z,93962
2018-03-16T17:26:29.652Z,93975
2018-03-16T17:28:57.718Z,93984
2018-03-16T17:31:25.890Z,93993
2018-03-16T17:33:53.939Z,93996
2018-03-16T17:36:22.054Z,93997
2018-03-16T17:38:50.120Z,94002
2018-03-16T17:41:18.182Z,94003
2018-03-16T17:43:46.275Z,94013
2018-03-16T17:46:14.351Z,94017
2018-03-16T17:48:42.414Z,94018
2018-03-16T17:51:10.482Z,94016
2018-03-16T17:53:38.556Z,94018
2018-03-16T17:56:06.724Z,94013
2018-03-16T17:58:34.803Z,94025
2018-03-16T18:01:03.118Z,94024
2018-03-16T18:03:31.303Z,94014
2018-03-16T18:06:00.087Z,94030
2018-03-16T18:08:28.198Z,94024
2018-03-16T18:10:57.451Z,94032
2018-03-16T18:13:25.530Z,94029
2018-03-16T18:15:53.592Z,94025
2018-03-16T18:18:21.639Z,94040
2018-03-16T18:20:50.486Z,94031
2018-03-16T18:23:18.549Z,94042
2018-03-16T18:25:46.652Z,94041
2018-03-16T18:28:14.867Z,94046
2018-03-16T18:30:42.906Z,94042
2018-03-16T18:33:10.979Z,94049
2018-03-16T18:35:39.029Z,94041
2018-03-16T18:38:07.391Z,94048
2018-03-16T18:40:35.507Z,94042
2018-03-16T18:43:03.586Z,94049
2018-03-16T18:45:31.950Z,94043
2018-03-16T18:48:00.641Z,94043
2018-03-16T18:50:28.702Z,94037
2018-03-16T18:52:57.063Z,94029
2018-03-16T18:55:25.902Z,94042
2018-03-16T18:57:54.116Z,94037
2018-03-16T19:00:22.339Z,94029
2018-03-16T19:02:50.397Z,94039
2018-03-16T19:05:19.226Z,94037
2018-03-16T19:07:47.490Z,94026
2018-03-16T19:10:15.607Z,94029
2018-03-16T19:12:43.778Z,94026
2018-03-16T19:15:11.846Z,94025
2018-03-16T19:17:39.930Z,94024
2018-03-16T19:20:08.004Z,94026
2018-03-16T19:22:36.368Z,94023
2018-03-16T19:25:04.682Z,94028
2018-03-16T19:27:32.859Z,94030
2018-03-16T19:30:01.026Z,94027
2018-03-16T19:32:29.270Z,94020
2018-03-16T19:34:57.616Z,94016
2018-03-16T19:37:25.670Z,94026
2018-03-16T19:39:53.901Z,94026
2018-03-16T19:42:22.022Z,94019
2018-03-16T19:44:50.085Z,94011
2018-03-16T19:47:18.151Z,93994
2018-03-16T19:49:46.238Z,93997
2018-03-16T19:52:14.330Z,94002
2018-03-16T19:54:42.494Z,93997
2018-03-16T19:57:10.562Z,93995
2018-03-16T19:59:38.622Z,93987
2018-03-16T20:02:06.902Z,93999
2018-03-16T20:04:35.022Z,93998
2018-03-16T20:07:03.565Z,93993
2018-03-16T20:09:31.618Z,93990
2018-03-16T20:12:01.562Z,93982
2018-03-16T20:14:29.614Z,93982
2018-03-16T20:16:58.488Z,93990
2018-03-16T20:19:27.375Z,93983
2018-03-16T20:21:56.290Z,93985
2018-03-16T20:24:24.374Z,93978
2018-03-16T20:26:53.249Z,93971
2018-03-16T20:29:21.412Z,93976
2018-03-16T20:31:49.504Z,93958
2018-03-16T20:34:19.080Z,93963
2018-03-16T20:36:47.138Z,93955
2018-03-16T20:39:15.214Z,93953
2018-03-16T20:41:43.262Z,93958
2018-03-16T20:44:12.099Z,93953
2018-03-16T20:46:40.153Z,93953
2018-03-16T20:49:08.234Z,93946
2018-03-16T20:51:36.308Z,93952
2018-03-16T20:54:04.369Z,93964
2018-03-16T20:56:32.426Z,93966
2018-03-16T20:59:02.386Z,93976
2018-03-16T21:01:30.462Z,93976
2018-03-16T21:03:58.958Z,93989
2018-03-16T21:06:27.039Z,94000
2018-03-16T21:08:55.094Z,94003
2018-03-16T21:11:23.174Z,94008
2018-03-16T21:13:52.356Z,93995
2018-03-16T21:16:21.162Z,94006
2018-03-16T21:18:49.243Z,94012
2018-03-16T21:21:17.311Z,94003
2018-03-16T21:23:45.378Z,94003
2018-03-16T21:26:13.430Z,94000
2018-03-16T21:28:42.330Z,94007
2018-03-16T21:31:10.408Z,94013
2018-03-16T21:33:38.446Z,94022
2018-03-16T21:36:06.518Z,94012
2018-03-16T21:38:34.591Z,94002
2018-03-16T21:41:02.670Z,93993
2018-03-16T21:43:33.430Z,93989
2018-03-16T21:46:02.602Z,93991
2018-03-16T21:48:30.687Z,93987
2018-03-16T21:50:58.778Z,93996
2018-03-16T21:53:26.890Z,93981
2018-03-16T21:55:54.914Z,93974
2018-03-16T21:58:23.239Z,93981
2018-03-16T22:00:53.438Z,93969
2018-03-16T22:03:21.574Z,93978
2018-03-16T22:05:49.688Z,93973
2018-03-16T22:08:17.886Z,93972
2018-03-16T22:10:45.945Z,93972
2018-03-16T22:13:14.015Z,93976
2018-03-16T22:15:42.348Z,93976
2018-03-16T22:18:11.195Z,93975
2018-03-16T22:20:39.254Z,93975
2018-03-16T22:23:08.326Z,93971
2018-03-16T22:25:36.366Z,93960
2018-03-16T22:28:04.422Z,93956
2018-03-16T22:30:34.147Z,93963
2018-03-16T22:33:03.532Z,93970
2018-03-16T22:35:31.605Z,93968
2018-03-16T22:37:59.690Z,93967
2018-03-16T22:40:27.886Z,93964
2018-03-16T22:42:56.739Z,93953
2018-03-16T22:45:24.799Z,93962
2018-03-16T22:47:53.209Z,93962
2018-03-16T22:50:21.283Z,93965
2018-03-16T22:52:49.346Z,93947
2018-03-16T22:55:17.532Z,93944
2018-03-16T22:57:45.584Z,93955
2018-03-16T23:00:13.807Z,93951
2018-03-16T23:02:41.961Z,93958
2018-03-16T23:05:10.751Z,93941
2018-03-16T23:07:40.093Z,93954
2018-03-16T23:10:08.496Z,93943
2018-03-16T23:12:36.646Z,93939
2018-03-16T23:15:04.717Z,93944
2018-03-16T23:17:34.029Z,93930
2018-03-16T23:20:02.207Z,93934
2018-03-16T23:22:30.410Z,93935
2018-03-16T23:24:59.473Z,93940
2018-03-16T23:27:27.528Z,93930
2018-03-16T23:29:55.677Z,93925
2018-03-16T23:32:23.851Z,93939
2018-03-16T23:34:53.127Z,93924
2018-03-16T23:37:21.189Z,93915
2018-03-16T23:39:49.540Z,93910
2018-03-16T23:42:17.594Z,93919
2018-03-16T23:44:46.425Z,93919
2018-03-16T23:47:14.578Z,93915
2018-03-16T23:49:42.695Z,93905
2018-03-16T23:52:10.770Z,93909
2018-03-16T23:54:39.187Z,93910
2018-03-16T23:57:08.027Z,93905
2018-03-16T23:59:36.085Z,93902
